createdAt,value
2019-03-17T00:01:01.364Z,99260.80
2019-03-17T00:03:30.369Z,99250.91
2019-03-17T00:05:59.416Z,99250.31
2019-03-17T00:08:28.459Z,99244.99
2019-03-17T00:10:57.549Z,99229.05
2019-03-17T00:13:26.604Z,99242.90
2019-03-17T00:15:55.605Z,99240.80
2019-03-17T00:18:24.657Z,99235.27
2019-03-17T00:20:53.716Z,99228.45
2019-03-17T00:23:22.679Z,99223.58
2019-03-17T00:25:51.804Z,99226.35
2019-03-17T00:28:20.853Z,99222.75
2019-03-17T00:30:50.233Z,99224.40
2019-03-17T00:33:19.214Z,99217.30
2019-03-17T00:35:48.227Z,99213.77
2019-03-17T00:38:17.275Z,99217.36
2019-03-17T00:40:46.217Z,99203.29
2019-03-17T00:43:15.311Z,99207.11
2019-03-17T00:45:44.339Z,99199.92
2019-03-17T00:48:13.362Z,99194.59
2019-03-17T00:50:42.396Z,99197.59
2019-03-17T00:53:11.513Z,99200.89
2019-03-17T00:55:40.528Z,99186.66
2019-03-17T00:58:09.608Z,99194.01
2019-03-17T01:00:38.624Z,99188.33
2019-03-17T01:03:08.041Z,99186.01
2019-03-17T01:05:37.073Z,99188.86
2019-03-17T01:08:06.129Z,99181.98
2019-03-17T01:10:35.332Z,99173.83
2019-03-17T01:13:04.344Z,99176.07
2019-03-17T01:15:33.403Z,99175.97
2019-03-17T01:18:02.733Z,99178.21
2019-03-17T01:20:31.753Z,99157.41
2019-03-17T01:23:01.026Z,99164.14
2019-03-17T01:25:30.999Z,99160.63
2019-03-17T01:28:00.010Z,99155.39
2019-03-17T01:30:29.073Z,99157.79
2019-03-17T01:32:58.117Z,99148.21
2019-03-17T01:35:27.168Z,99136.92
2019-03-17T01:37:56.522Z,99145.89
2019-03-17T01:40:25.589Z,99137.29
2019-03-17T01:42:54.916Z,99136.16
2019-03-17T01:45:23.929Z,99140.06
2019-03-17T01:47:53.324Z,99136.31
2019-03-17T01:50:22.227Z,99131.98
2019-03-17T01:52:51.158Z,99131.01
2019-03-17T01:55:20.235Z,99121.88
2019-03-17T01:57:49.171Z,99119.72
2019-03-17T02:00:18.141Z,99121.21
2019-03-17T02:02:47.178Z,99116.95
2019-03-17T02:05:21.897Z,99099.75
2019-03-17T02:07:47.458Z,99111.27
2019-03-17T02:10:16.552Z,99105.88
2019-03-17T02:12:46.059Z,99092.79
2019-03-17T02:15:15.278Z,99091.74
2019-03-17T02:17:44.359Z,99086.52
2019-03-17T02:20:13.547Z,99093.23
2019-03-17T02:22:42.729Z,99089.88
2019-03-17T02:25:11.813Z,99088.83
2019-03-17T02:27:40.830Z,99091.67
2019-03-17T02:30:10.505Z,99080.98
2019-03-17T02:32:39.575Z,99083.52
2019-03-17T02:35:08.577Z,99082.10
2019-03-17T02:37:37.665Z,99080.45
2019-03-17T02:40:06.955Z,99071.63
2019-03-17T02:42:35.984Z,99068.19
2019-03-17T02:45:05.510Z,99066.40
2019-03-17T02:47:34.443Z,99062.36
2019-03-17T02:50:03.466Z,99060.86
2019-03-17T02:52:32.528Z,99055.26
2019-03-17T02:55:01.563Z,99061.13
2019-03-17T02:57:30.631Z,99055.67
2019-03-17T02:59:59.912Z,99044.38
2019-03-17T03:02:28.922Z,99052.83
2019-03-17T03:04:57.985Z,99052.38
2019-03-17T03:07:26.994Z,99057.38
2019-03-17T03:09:56.365Z,99036.98
2019-03-17T03:12:25.445Z,99037.05
2019-03-17T03:14:54.514Z,99031.59
2019-03-17T03:17:23.441Z,99029.95
2019-03-17T03:19:52.444Z,99014.11
2019-03-17T03:22:21.493Z,99015.38
2019-03-17T03:24:50.541Z,99009.33
2019-03-17T03:27:19.550Z,99013.66
2019-03-17T03:29:48.570Z,99012.61
2019-03-17T03:32:17.633Z,99009.78
2019-03-17T03:34:46.710Z,99004.17
2019-03-17T03:37:15.799Z,99002.45
2019-03-17T03:39:44.819Z,98991.47
2019-03-17T03:42:13.823Z,99002.91
2019-03-17T03:44:42.882Z,98991.02
2019-03-17T03:47:11.893Z,98996.77
2019-03-17T03:49:40.951Z,98987.06
2019-03-17T03:52:10.282Z,98991.62
2019-03-17T03:54:39.330Z,98985.94
2019-03-17T03:57:08.343Z,98984.82
2019-03-17T03:59:37.403Z,98984.52
2019-03-17T04:02:06.695Z,98982.36
2019-03-17T04:04:35.679Z,98966.22
2019-03-17T04:07:04.786Z,98964.05
2019-03-17T04:09:33.825Z,98966.81
2019-03-17T04:12:02.858Z,98957.55
2019-03-17T04:14:32.266Z,98962.93
2019-03-17T04:17:01.337Z,98959.20
2019-03-17T04:19:30.337Z,98957.11
2019-03-17T04:21:59.966Z,98957.85
2019-03-17T04:24:29.189Z,98958.89
2019-03-17T04:26:58.251Z,98957.48
2019-03-17T04:29:27.286Z,98947.61
2019-03-17T04:31:56.317Z,98947.17
2019-03-17T04:34:25.356Z,98953.59
2019-03-17T04:36:54.368Z,98951.88
2019-03-17T04:39:23.384Z,98942.69
2019-03-17T04:41:52.436Z,98943.36
2019-03-17T04:44:21.449Z,98943.28
2019-03-17T04:46:50.499Z,98952.84
2019-03-17T04:49:19.863Z,98957.10
2019-03-17T04:51:48.801Z,98941.04
2019-03-17T04:54:17.854Z,98995.73
2019-03-17T04:56:46.787Z,98998.27
2019-03-17T04:59:15.801Z,99012.98
2019-03-17T05:01:44.869Z,99008.70
2019-03-17T05:04:14.224Z,99018.85
2019-03-17T05:06:52.102Z,99012.41
2019-03-17T05:09:14.009Z,99024.05
2019-03-17T05:11:42.977Z,99033.72
2019-03-17T05:14:12.017Z,99023.33
2019-03-17T05:16:40.989Z,99033.75
2019-03-17T05:19:09.986Z,99029.94
2019-03-17T05:21:38.992Z,99029.84
2019-03-17T05:24:07.997Z,99041.52
2019-03-17T05:26:37.069Z,99041.09
2019-03-17T05:29:06.081Z,99045.03
2019-03-17T05:31:35.138Z,99056.57
2019-03-17T05:34:04.180Z,99057.91
2019-03-17T05:36:33.176Z,99056.13
2019-03-17T05:39:02.171Z,99059.94
2019-03-17T05:41:31.024Z,99060.30
2019-03-17T05:44:00.278Z,99066.28
2019-03-17T05:46:29.344Z,99074.01
2019-03-17T05:48:58.348Z,99075.12
2019-03-17T05:51:27.281Z,99076.45
2019-03-17T05:53:56.589Z,99076.89
2019-03-17T05:56:25.645Z,99085.52
2019-03-17T05:58:54.661Z,99085.42
2019-03-17T06:01:23.669Z,99081.84
2019-03-17T06:03:52.714Z,99094.58
2019-03-17T06:06:21.761Z,99100.85
2019-03-17T06:08:51.112Z,99093.63
2019-03-17T06:11:20.118Z,99102.24
2019-03-17T06:13:51.127Z,99112.77
2019-03-17T06:16:19.801Z,99107.31
2019-03-17T06:18:48.796Z,99106.36
2019-03-17T06:21:17.861Z,99108.02
2019-03-17T06:23:46.873Z,99104.66
2019-03-17T06:26:15.915Z,99109.37
2019-03-17T06:28:44.888Z,99109.50
2019-03-17T06:31:13.900Z,99119.13
2019-03-17T06:33:42.973Z,99119.45
2019-03-17T06:36:11.925Z,99131.37
2019-03-17T06:38:40.940Z,99155.78
2019-03-17T06:41:09.989Z,99156.59
2019-03-17T06:43:39.041Z,99162.37
2019-03-17T06:46:08.056Z,99172.70
2019-03-17T06:48:37.123Z,99173.28
2019-03-17T06:51:06.146Z,99171.05
2019-03-17T06:53:35.131Z,99162.24
2019-03-17T06:56:04.185Z,99154.25
2019-03-17T06:58:33.164Z,99152.48
2019-03-17T07:01:02.188Z,99158.05
2019-03-17T07:03:31.228Z,99181.39
2019-03-17T07:06:00.279Z,99184.81
2019-03-17T07:08:29.257Z,99177.84
2019-03-17T07:10:58.275Z,99171.12
2019-03-17T07:13:27.212Z,99144.22
2019-03-17T07:15:56.269Z,99142.17
2019-03-17T07:18:25.206Z,99166.40
2019-03-17T07:20:54.212Z,99181.49
2019-03-17T07:23:23.263Z,99199.77
2019-03-17T07:25:52.283Z,99209.61
2019-03-17T07:28:21.337Z,99234.54
2019-03-17T07:30:50.363Z,99235.81
2019-03-17T07:33:19.411Z,99243.55
2019-03-17T07:35:48.417Z,99239.74
2019-03-17T07:38:17.478Z,99233.97
2019-03-17T07:40:46.845Z,99237.59
2019-03-17T07:43:15.858Z,99242.66
2019-03-17T07:45:44.937Z,99253.37
2019-03-17T07:48:13.872Z,99265.16
2019-03-17T07:50:42.887Z,99253.95
2019-03-17T07:53:11.874Z,99261.95
2019-03-17T07:55:40.890Z,99257.22
2019-03-17T07:58:09.945Z,99248.19
2019-03-17T08:00:38.949Z,99254.94
2019-03-17T08:03:07.972Z,99259.25
2019-03-17T08:05:37.031Z,99257.95
2019-03-17T08:08:09.772Z,99268.43
2019-03-17T08:10:37.177Z,99270.15
2019-03-17T08:13:06.227Z,99258.54
2019-03-17T08:15:35.244Z,99267.84
2019-03-17T08:18:04.296Z,99258.47
2019-03-17T08:20:33.308Z,99257.58
2019-03-17T08:23:02.362Z,99267.70
2019-03-17T08:25:31.691Z,99279.20
2019-03-17T08:28:00.630Z,99285.94
2019-03-17T08:30:29.667Z,99292.63
2019-03-17T08:32:58.865Z,99298.28
2019-03-17T08:35:27.921Z,99310.57
2019-03-17T08:37:56.932Z,99310.47
2019-03-17T08:40:25.985Z,99314.82
2019-03-17T08:42:54.989Z,99315.44
2019-03-17T08:45:24.043Z,99320.52
2019-03-17T08:47:58.277Z,99327.91
2019-03-17T08:50:23.695Z,99341.84
2019-03-17T08:52:52.699Z,99339.56
2019-03-17T08:55:21.636Z,99357.58
2019-03-17T08:57:50.669Z,99346.23
2019-03-17T09:00:19.912Z,99363.66
2019-03-17T09:02:50.170Z,99368.78
2019-03-17T09:05:19.220Z,99368.05
2019-03-17T09:07:48.433Z,99392.60
2019-03-17T09:10:17.453Z,99389.13
2019-03-17T09:12:46.512Z,99393.90
2019-03-17T09:15:15.563Z,99381.11
2019-03-17T09:17:44.570Z,99392.56
2019-03-17T09:20:13.702Z,99396.78
2019-03-17T09:22:42.651Z,99399.13
2019-03-17T09:25:11.757Z,99396.91
2019-03-17T09:27:40.839Z,99406.08
2019-03-17T09:30:11.649Z,99404.94
2019-03-17T09:32:40.954Z,99410.80
2019-03-17T09:35:10.167Z,99412.08
2019-03-17T09:37:39.526Z,99411.59
2019-03-17T09:40:09.494Z,99411.42
2019-03-17T09:42:38.516Z,99418.50
2019-03-17T09:45:07.871Z,99409.42
2019-03-17T09:47:36.885Z,99410.39
2019-03-17T09:50:06.993Z,99396.37
2019-03-17T09:52:36.002Z,99402.99
2019-03-17T09:55:05.236Z,99405.61
2019-03-17T09:57:34.557Z,99416.31
2019-03-17T10:00:03.806Z,99415.63
2019-03-17T10:02:32.803Z,99416.67
2019-03-17T10:05:01.899Z,99435.45
2019-03-17T10:07:30.925Z,99448.38
2019-03-17T10:09:59.966Z,99443.94
2019-03-17T10:12:29.037Z,99431.09
2019-03-17T10:14:58.044Z,99439.89
2019-03-17T10:17:27.053Z,99433.91
2019-03-17T10:19:56.222Z,99425.34
2019-03-17T10:22:25.239Z,99416.32
2019-03-17T10:24:54.634Z,99434.44
2019-03-17T10:27:23.697Z,99432.36
2019-03-17T10:29:52.635Z,99435.60
2019-03-17T10:32:21.589Z,99442.64
2019-03-17T10:34:50.654Z,99461.50
2019-03-17T10:37:19.806Z,99449.19
2019-03-17T10:39:48.840Z,99448.30
2019-03-17T10:42:17.888Z,99459.55
2019-03-17T10:44:46.888Z,99465.64
2019-03-17T10:47:15.888Z,99448.46
2019-03-17T10:49:44.918Z,99456.31
2019-03-17T10:52:13.961Z,99466.64
2019-03-17T10:54:42.956Z,99474.25
2019-03-17T10:57:11.889Z,99467.16
2019-03-17T10:59:40.897Z,99482.53
2019-03-17T11:02:09.990Z,99484.83
2019-03-17T11:04:38.968Z,99487.27
2019-03-17T11:07:07.979Z,99491.13
2019-03-17T11:09:37.030Z,99477.27
2019-03-17T11:12:06.113Z,99487.56
2019-03-17T11:14:35.063Z,99484.32
2019-03-17T11:17:04.048Z,99495.29
2019-03-17T11:19:33.097Z,99526.42
2019-03-17T11:22:02.114Z,99510.78
2019-03-17T11:24:31.184Z,99520.54
2019-03-17T11:27:00.160Z,99520.86
2019-03-17T11:29:29.217Z,99517.09
2019-03-17T11:31:58.636Z,99523.08
2019-03-17T11:34:27.649Z,99520.92
2019-03-17T11:36:56.963Z,99525.94
2019-03-17T11:39:37.238Z,99538.09
2019-03-17T11:41:56.749Z,99539.27
2019-03-17T11:44:25.835Z,99533.56
2019-03-17T11:46:54.877Z,99529.21
2019-03-17T11:49:23.929Z,99534.81
2019-03-17T11:51:53.004Z,99542.92
2019-03-17T11:54:21.949Z,99531.53
2019-03-17T11:56:51.387Z,99559.73
2019-03-17T11:59:20.444Z,99552.05
2019-03-17T12:01:49.445Z,99562.47
2019-03-17T12:04:18.505Z,99552.89
2019-03-17T12:06:47.512Z,99564.43
2019-03-17T12:09:28.206Z,99532.49
2019-03-17T12:11:47.314Z,99567.78
2019-03-17T12:14:16.315Z,99551.21
2019-03-17T12:16:45.364Z,99577.45
2019-03-17T12:19:14.411Z,99559.60
2019-03-17T12:21:43.463Z,99565.03
2019-03-17T12:24:12.465Z,99558.04
2019-03-17T12:26:41.482Z,99567.41
2019-03-17T12:29:10.558Z,99567.48
2019-03-17T12:31:39.608Z,99549.38
2019-03-17T12:34:08.540Z,99566.28
2019-03-17T12:36:37.589Z,99569.11
2019-03-17T12:39:07.603Z,99572.30
2019-03-17T12:41:38.346Z,99574.54
2019-03-17T12:44:07.558Z,99591.02
2019-03-17T12:46:36.482Z,99592.28
2019-03-17T12:49:05.522Z,99595.86
2019-03-17T12:51:34.522Z,99590.45
2019-03-17T12:54:03.893Z,99602.81
2019-03-17T12:56:33.023Z,99602.53
2019-03-17T12:59:02.012Z,99615.61
2019-03-17T13:01:31.024Z,99609.72
2019-03-17T13:04:00.073Z,99622.40
2019-03-17T13:06:29.008Z,99617.25
2019-03-17T13:09:00.888Z,99621.45
2019-03-17T13:11:28.697Z,99616.48
2019-03-17T13:13:57.769Z,99618.41
2019-03-17T13:16:26.775Z,99607.63
2019-03-17T13:18:55.715Z,99622.77
2019-03-17T13:21:25.050Z,99611.81
2019-03-17T13:23:54.018Z,99630.47
2019-03-17T13:26:23.018Z,99616.14
2019-03-17T13:28:52.099Z,99633.72
2019-03-17T13:31:21.412Z,99647.59
2019-03-17T13:33:50.414Z,99647.94
2019-03-17T13:36:19.399Z,99638.20
2019-03-17T13:38:48.408Z,99639.24
2019-03-17T13:41:17.403Z,99638.45
2019-03-17T13:43:46.754Z,99643.14
2019-03-17T13:46:15.687Z,99640.11
2019-03-17T13:48:45.137Z,99647.92
2019-03-17T13:51:14.132Z,99642.81
2019-03-17T13:53:43.453Z,99644.48
2019-03-17T13:56:12.507Z,99646.25
2019-03-17T13:58:41.511Z,99642.59
2019-03-17T14:01:10.604Z,99645.77
2019-03-17T14:03:39.603Z,99646.72
2019-03-17T14:06:08.654Z,99650.98
2019-03-17T14:08:37.622Z,99649.14
2019-03-17T14:11:06.655Z,99659.50
2019-03-17T14:13:35.750Z,99662.67
2019-03-17T14:16:04.788Z,99665.87
2019-03-17T14:18:34.100Z,99665.71
2019-03-17T14:21:03.168Z,99680.80
2019-03-17T14:23:32.235Z,99681.46
2019-03-17T14:26:01.330Z,99672.61
2019-03-17T14:28:30.448Z,99675.38
2019-03-17T14:30:59.523Z,99664.83
2019-03-17T14:33:28.800Z,99683.61
2019-03-17T14:35:57.828Z,99681.98
2019-03-17T14:38:26.909Z,99678.81
2019-03-17T14:40:57.372Z,99680.99
2019-03-17T14:43:26.447Z,99685.34
2019-03-17T14:45:55.496Z,99684.70
2019-03-17T14:48:24.723Z,99702.14
2019-03-17T14:50:53.721Z,99698.80
2019-03-17T14:53:22.987Z,99682.23
2019-03-17T14:55:52.002Z,99683.00
2019-03-17T14:58:21.065Z,99698.53
2019-03-17T15:00:50.149Z,99689.74
2019-03-17T15:03:19.160Z,99696.50
2019-03-17T15:05:48.345Z,99696.34
2019-03-17T15:08:17.397Z,99704.28
2019-03-17T15:10:46.397Z,99734.47
2019-03-17T15:13:15.448Z,99707.00
2019-03-17T15:15:44.452Z,99714.78
2019-03-17T15:18:13.491Z,99725.89
2019-03-17T15:20:42.504Z,99728.61
2019-03-17T15:23:11.471Z,99734.53
2019-03-17T15:25:40.552Z,99727.20
2019-03-17T15:28:09.563Z,99736.25
2019-03-17T15:30:38.579Z,99738.05
2019-03-17T15:33:07.684Z,99739.32
2019-03-17T15:35:37.000Z,99738.64
2019-03-17T15:38:06.048Z,99736.45
2019-03-17T15:40:35.084Z,99744.53
2019-03-17T15:43:04.138Z,99744.79
2019-03-17T15:45:33.198Z,99756.36
2019-03-17T15:48:04.222Z,99751.08
2019-03-17T15:50:34.881Z,99758.05
2019-03-17T15:53:04.323Z,99743.59
2019-03-17T15:55:33.396Z,99746.84
2019-03-17T15:58:02.425Z,99740.49
2019-03-17T16:00:31.426Z,99742.64
2019-03-17T16:03:00.464Z,99736.56
2019-03-17T16:05:29.931Z,99743.80
2019-03-17T16:07:58.937Z,99759.52
2019-03-17T16:10:28.646Z,99753.02
2019-03-17T16:12:57.685Z,99747.73
2019-03-17T16:15:26.761Z,99747.83
2019-03-17T16:17:55.758Z,99758.33
2019-03-17T16:20:24.822Z,99767.43
2019-03-17T16:22:53.860Z,99777.75
2019-03-17T16:25:22.872Z,99805.12
2019-03-17T16:27:51.915Z,99784.70
2019-03-17T16:30:22.083Z,99788.34
2019-03-17T16:32:51.128Z,99778.39
2019-03-17T16:35:20.136Z,99779.37
2019-03-17T16:37:49.193Z,99779.61
2019-03-17T16:40:19.824Z,99786.13
2019-03-17T16:42:48.839Z,99796.56
2019-03-17T16:45:18.046Z,99797.93
2019-03-17T16:47:47.122Z,99808.13
2019-03-17T16:50:16.691Z,99803.63
2019-03-17T16:52:45.772Z,99795.52
2019-03-17T16:55:14.835Z,99792.50
2019-03-17T16:57:43.881Z,99785.30
2019-03-17T17:00:19.269Z,99785.09
2019-03-17T17:02:48.772Z,99786.58
2019-03-17T17:05:17.908Z,99791.12
2019-03-17T17:07:47.236Z,99792.75
2019-03-17T17:10:17.376Z,99795.85
2019-03-17T17:12:46.382Z,99788.60
2019-03-17T17:15:17.528Z,99803.93
2019-03-17T17:17:46.540Z,99802.61
2019-03-17T17:20:17.761Z,99805.31
2019-03-17T17:22:46.777Z,99801.95
2019-03-17T17:25:15.796Z,99811.34
2019-03-17T17:27:44.804Z,99802.37
2019-03-17T17:30:15.171Z,99808.83
2019-03-17T17:32:44.283Z,99805.98
2019-03-17T17:35:13.509Z,99819.27
2019-03-17T17:37:42.560Z,99805.27
2019-03-17T17:40:13.453Z,99808.55
2019-03-17T17:42:42.499Z,99812.43
2019-03-17T17:45:13.014Z,99821.80
2019-03-17T17:47:42.018Z,99808.08
2019-03-17T17:50:12.650Z,99815.74
2019-03-17T17:52:41.662Z,99809.49
2019-03-17T17:55:10.886Z,99808.34
2019-03-17T17:57:39.932Z,99823.59
2019-03-17T18:00:10.602Z,99822.05
2019-03-17T18:02:40.004Z,99826.31
2019-03-17T18:05:09.027Z,99820.42
2019-03-17T18:07:38.040Z,99827.61
2019-03-17T18:10:07.557Z,99820.38
2019-03-17T18:12:36.614Z,99828.15
2019-03-17T18:15:07.038Z,99826.88
2019-03-17T18:17:36.078Z,99816.48
2019-03-17T18:20:05.428Z,99820.38
2019-03-17T18:22:34.485Z,99816.70
2019-03-17T18:25:03.517Z,99815.52
2019-03-17T18:27:32.559Z,99825.63
2019-03-17T18:30:01.582Z,99827.41
2019-03-17T18:32:30.634Z,99825.81
2019-03-17T18:35:00.004Z,99828.38
2019-03-17T18:37:29.391Z,99822.16
2019-03-17T18:39:58.337Z,99825.98
2019-03-17T18:42:33.076Z,99821.39
2019-03-17T18:44:58.373Z,99827.82
2019-03-17T18:47:27.390Z,99820.67
2019-03-17T18:49:56.444Z,99819.77
2019-03-17T18:52:25.453Z,99823.16
2019-03-17T18:54:54.459Z,99836.60
2019-03-17T18:57:23.510Z,99828.26
2019-03-17T18:59:52.573Z,99837.57
2019-03-17T19:02:21.626Z,99836.73
2019-03-17T19:04:50.631Z,99836.27
2019-03-17T19:07:19.677Z,99842.13
2019-03-17T19:09:48.618Z,99849.78
2019-03-17T19:12:17.660Z,99840.39
2019-03-17T19:14:46.673Z,99840.00
2019-03-17T19:17:15.741Z,99851.70
2019-03-17T19:19:44.834Z,99853.88
2019-03-17T19:22:13.823Z,99847.95
2019-03-17T19:24:42.829Z,99847.98
2019-03-17T19:27:11.842Z,99856.33
2019-03-17T19:29:40.915Z,99842.86
2019-03-17T19:32:09.961Z,99845.45
2019-03-17T19:34:39.153Z,99847.12
2019-03-17T19:37:08.216Z,99848.09
2019-03-17T19:39:37.431Z,99846.28
2019-03-17T19:42:06.420Z,99840.73
2019-03-17T19:44:35.796Z,99847.41
2019-03-17T19:47:04.878Z,99841.92
2019-03-17T19:49:34.260Z,99838.53
2019-03-17T19:52:03.332Z,99845.03
2019-03-17T19:54:32.276Z,99836.47
2019-03-17T19:57:01.309Z,99843.66
2019-03-17T19:59:30.399Z,99835.71
2019-03-17T20:01:59.731Z,99841.20
2019-03-17T20:04:31.515Z,99836.58
2019-03-17T20:06:59.530Z,99838.38
2019-03-17T20:09:28.587Z,99829.93
2019-03-17T20:11:57.594Z,99847.53
2019-03-17T20:14:27.112Z,99837.81
2019-03-17T20:16:56.118Z,99825.98
2019-03-17T20:19:25.120Z,99841.48
2019-03-17T20:21:54.169Z,99839.79
2019-03-17T20:24:23.170Z,99824.86
2019-03-17T20:26:52.229Z,99824.35
2019-03-17T20:29:21.245Z,99834.72
2019-03-17T20:31:50.256Z,99838.33
2019-03-17T20:34:19.316Z,99837.42
2019-03-17T20:36:48.595Z,99836.95
2019-03-17T20:39:17.612Z,99834.42
2019-03-17T20:41:46.708Z,99827.50
2019-03-17T20:44:16.009Z,99824.77
2019-03-17T20:46:44.977Z,99830.78
2019-03-17T20:49:14.021Z,99826.00
2019-03-17T20:51:43.031Z,99820.78
2019-03-17T20:54:12.081Z,99807.69
2019-03-17T20:56:41.043Z,99809.70
2019-03-17T20:59:10.097Z,99815.20
2019-03-17T21:01:39.110Z,99816.55
2019-03-17T21:04:08.160Z,99794.16
2019-03-17T21:06:37.208Z,99826.98
2019-03-17T21:09:08.044Z,99821.69
2019-03-17T21:11:37.035Z,99825.80
2019-03-17T21:14:06.037Z,99841.50
2019-03-17T21:16:34.971Z,99871.98
2019-03-17T21:19:03.942Z,99873.47
2019-03-17T21:21:32.963Z,99891.77
2019-03-17T21:24:02.013Z,99882.97
2019-03-17T21:26:31.020Z,99867.01
2019-03-17T21:29:00.069Z,99861.34
2019-03-17T21:31:29.084Z,99867.56
2019-03-17T21:33:58.060Z,99872.26
2019-03-17T21:36:27.068Z,99878.97
2019-03-17T21:38:56.005Z,99870.53
2019-03-17T21:41:25.098Z,99881.04
2019-03-17T21:43:59.495Z,99883.97
2019-03-17T21:46:25.128Z,99890.81
2019-03-17T21:48:54.459Z,99872.20
2019-03-17T21:51:23.477Z,99869.45
2019-03-17T21:53:52.531Z,99868.65
2019-03-17T21:56:21.815Z,99872.53
2019-03-17T21:58:50.866Z,99879.05
2019-03-17T22:01:19.805Z,99876.46
2019-03-17T22:03:48.781Z,99875.62
2019-03-17T22:06:17.800Z,99876.95
2019-03-17T22:08:46.868Z,99875.20
2019-03-17T22:11:15.955Z,99881.94
2019-03-17T22:13:45.000Z,99885.50
2019-03-17T22:16:13.967Z,99889.26
2019-03-17T22:18:42.984Z,99890.06
2019-03-17T22:21:11.982Z,99885.63
2019-03-17T22:23:40.944Z,99887.30
2019-03-17T22:26:10.008Z,99886.34
2019-03-17T22:28:39.077Z,99881.29
2019-03-17T22:31:08.088Z,99874.84
2019-03-17T22:33:37.066Z,99879.71
2019-03-17T22:36:06.083Z,99870.73
2019-03-17T22:38:35.090Z,99861.86
2019-03-17T22:41:04.137Z,99871.03
2019-03-17T22:43:33.116Z,99865.09
2019-03-17T22:46:02.121Z,99866.34
2019-03-17T22:48:31.172Z,99866.84
2019-03-17T22:51:00.039Z,99867.98
2019-03-17T22:53:29.047Z,99875.13
2019-03-17T22:55:58.093Z,99874.63
2019-03-17T22:58:27.108Z,99872.47
2019-03-17T23:00:57.070Z,99866.14
2019-03-17T23:03:26.723Z,99891.83
2019-03-17T23:05:56.096Z,99876.53
2019-03-17T23:08:25.093Z,99892.16
2019-03-17T23:10:54.107Z,99887.47
2019-03-17T23:13:23.165Z,99886.14
2019-03-17T23:15:52.194Z,99880.52
2019-03-17T23:18:21.193Z,99881.78
2019-03-17T23:20:50.934Z,99893.84
2019-03-17T23:23:20.001Z,99885.33
2019-03-17T23:25:49.017Z,99894.47
2019-03-17T23:28:18.064Z,99886.87
2019-03-17T23:30:47.070Z,99890.06
2019-03-17T23:33:16.078Z,99896.31
2019-03-17T23:35:45.149Z,99886.63
2019-03-17T23:38:14.165Z,99897.11
2019-03-17T23:40:43.176Z,99887.39
2019-03-17T23:43:12.215Z,99891.69
2019-03-17T23:45:41.469Z,99899.53
2019-03-17T23:48:10.792Z,99878.06
2019-03-17T23:50:39.847Z,99896.61
2019-03-17T23:53:08.897Z,99897.47
2019-03-17T23:55:37.910Z,99896.64
2019-03-17T23:58:06.949Z,99892.84
